Amsterdam — PBAD — position and weather

sailwx.info

Track history (hours):
 
Tides and Currents Weather Stations Pressure Air Temp Water Temp Dewpoint Dewpoint Depression Visibility Wind Speed Wind Dir Waves Ship Positions

Amsterdam

Operator: Holland America Line

Last reported at 2018-Oct-23 07:00 UTC. Time now 2018-Oct-24 04:38 UTC.
Position N 38°00' E 122°00'.

Type: Ship. MMSI: 244370000.

Wind from 310 at 25 knots

Barometer 1013.4 mb
Air temperature 16.0 ° C
Visibility: greater than 5.4 NM
Dewpoint 5.6 ° C
Water temperature 19.0 ° C

Date/timePositionNaut miles runAvg speedWind from/ knotsBaromVisibWave heightAir tempDewpointWater temp
2018-Oct-23 07:00N 38°00' E 122°00'11713.0 310 / 251013.4 5.4 16.0 5.619.0
2018-Oct-22 22:00N 36°36' E 123°42'14114.1 260 / 301011.010.8 18.016.322.0
2018-Oct-22 12:00N 34°24' E 124°42'3913.0 100 / 81014.910.8 18.015.520.5
2018-Oct-22 09:00N 33°54' E 125°12'2612.8 040 / 111014.010.8 16.014.322.0
2018-Oct-22 07:00N 33°48' E 125°42'1515.0 010 / 51014.4 5.4 19.015.622.0
2018-Oct-22 06:00N 33°48' E 126°00'11514.4 010 / 51014.8 5.4 19.015.622.0
2018-Oct-21 22:00N 33°42' E 128°18'111 5.0 040 / 191015.010.8 19.017.424.0
2018-Oct-21 00:00N 34°00' E 130°30'15814.4 070 / 161019.010.8 21.0 23.5
2018-Oct-20 13:00N 32°30' E 133°06'63 5.8 010 / 211015.810.8 18.012.722.0
2018-Oct-20 02:00N 33°30' E 133°30'71 7.2 030 / 101015.710.8 18.1
2018-Oct-19 16:09N 33°49' E 134°52'513.8
2018-Oct-19 15:49N 33°53' E 134°53'513.8
2018-Oct-19 15:28N 33°58' E 134°54'614.4
2018-Oct-19 15:04N 34°04' E 134°56'114.1
2018-Oct-19 15:00N 34°04' E 134°57'714.0
2018-Oct-19 14:30N 34°11' E 134°58'4 7.1
2018-Oct-19 14:00N 34°12' E 134°54'1734.5 050 / 121013.910.8 19.013.822.0
2018-Oct-19 13:30N 34°26' E 135°04'818.3
2018-Oct-19 13:03N 34°33' E 135°10'117.5
2018-Oct-19 13:00N 34°34' E 135°11'713.4
2018-Oct-19 12:30N 34°39' E 135°16'3 7.1
2018-Oct-19 12:03N 34°41' E 135°13'0 5.1
2018-Oct-19 12:00N 34°41' E 135°12'0 0.3
2018-Oct-19 11:28N 34°41' E 135°12'0 0.0
2018-Oct-19 10:58N 34°41' E 135°12'0 0.0
2018-Oct-19 10:28N 34°41' E 135°12'0 0.0
2018-Oct-19 10:01N 34°41' E 135°12'0 0.0
2018-Oct-19 09:51N 34°41' E 135°12'0 0.0
2018-Oct-19 09:12N 34°41' E 135°12'0 0.0
2018-Oct-19 09:01N 34°41' E 135°12'0 0.0
2018-Oct-19 08:55N 34°41' E 135°12'0 0.0
2018-Oct-19 08:19N 34°41' E 135°12'0 0.0
2018-Oct-19 08:01N 34°41' E 135°12'0 0.0
2018-Oct-19 07:30N 34°41' E 135°12'0 0.0
2018-Oct-19 07:01N 34°41' E 135°12'0 0.0
2018-Oct-19 06:25N 34°41' E 135°12'0 0.0
2018-Oct-19 06:00N 34°41' E 135°12'0 0.0
2018-Oct-19 05:30N 34°41' E 135°12'0 0.0
2018-Oct-19 05:01N 34°41' E 135°12'0 0.0
2018-Oct-19 04:31N 34°41' E 135°12'0 0.0
2018-Oct-19 03:54N 34°41' E 135°12'0 0.0
2018-Oct-19 03:24N 34°41' E 135°12'0 0.0
2018-Oct-19 03:01N 34°41' E 135°12'0 0.0
2018-Oct-19 02:55N 34°41' E 135°12'0 0.0
2018-Oct-19 02:24N 34°41' E 135°12'0 0.0
2018-Oct-19 02:00N 34°41' E 135°12'5295.2
2018-Oct-19 02:00N 34°36' E 135°12'510.0 1012.710.8 19.6
2018-Oct-19 01:31N 34°41' E 135°12'0 0.0
2018-Oct-19 01:00N 34°41' E 135°12'0 0.0
2018-Oct-19 00:31N 34°41' E 135°12'0 0.0
2018-Oct-19 00:00N 34°41' E 135°12'0 0.1
2018-Oct-18 23:31N 34°41' E 135°12'3 6.1
2018-Oct-18 23:03N 34°40' E 135°15'0 9.5
2018-Oct-18 23:00N 34°39' E 135°16'4 9.0
2018-Oct-18 22:30N 34°35' E 135°15'512.2
2018-Oct-18 22:03N 34°30' E 135°12'113.2
2018-Oct-18 22:00N 34°30' E 135°11'815.1
2018-Oct-18 21:31N 34°24' E 135°05'817.5
2018-Oct-18 21:03N 34°18' E 134°60'117.3
2018-Oct-18 21:01N 34°17' E 134°59'815.8
2018-Oct-18 20:30N 34°09' E 134°60'818.8
2018-Oct-18 20:03N 34°01' E 134°60'118.7
2018-Oct-18 20:00N 33°60' E 134°59'918.6
2018-Oct-18 19:30N 33°50' E 134°59'913.0
2018-Oct-18 18:50N 33°43' E 135°04'3317.9
2018-Oct-18 17:00N 33°18' E 135°30'10617.7 040 / 121010.410.8 20.010.922.0
2018-Oct-18 11:00N 34°06' E 137°24'77 8.5 090 / 201010.410.8 20.014.922.0
2018-Oct-18 02:00N 35°00' E 138°30'49 3.5 040 / 111010.510.8 20.0
2018-Oct-17 12:00N 35°00' E 139°30'170.5 040 / 201009.410.8 17.0 22.0
2018-Oct-17 11:58N 35°01' E 139°31'714.0
2018-Oct-17 11:27N 35°04' E 139°39'614.3
2018-Oct-17 11:03N 35°08' E 139°44'115.3
2018-Oct-17 11:00N 35°09' E 139°45'612.6
2018-Oct-17 10:30N 35°15' E 139°46'613.0
2018-Oct-17 10:03N 35°20' E 139°43'113.0
2018-Oct-17 10:00N 35°20' E 139°42'612.4
2018-Oct-17 09:30N 35°27' E 139°42'2 5.4
2018-Oct-17 09:03N 35°27' E 139°39'0 2.6
2018-Oct-17 09:00N 35°27' E 139°39'0 0.4
2018-Oct-17 08:29N 35°27' E 139°39'0 0.0
2018-Oct-17 08:02N 35°27' E 139°39'0 0.0
2018-Oct-17 07:59N 35°27' E 139°39'0 0.0
2018-Oct-17 07:29N 35°27' E 139°39'0 0.0
2018-Oct-17 07:02N 35°27' E 139°39'0 0.0
2018-Oct-17 06:59N 35°27' E 139°39'0 0.0
2018-Oct-17 06:29N 35°27' E 139°39'0 0.0
2018-Oct-17 06:02N 35°27' E 139°39'0 0.1
2018-Oct-17 05:59N 35°27' E 139°39'0 0.0
2018-Oct-17 05:29N 35°27' E 139°39'0 0.0
2018-Oct-17 05:03N 35°27' E 139°39'0 0.1
2018-Oct-17 04:59N 35°27' E 139°39'0 0.0
2018-Oct-17 04:29N 35°27' E 139°39'0 0.0
2018-Oct-17 04:02N 35°27' E 139°39'0 0.0
2018-Oct-17 03:59N 35°27' E 139°39'0 0.0
2018-Oct-17 03:29N 35°27' E 139°39'0 0.0
2018-Oct-17 03:02N 35°27' E 139°39'0 0.0
2018-Oct-17 02:59N 35°27' E 139°39'0 0.0
2018-Oct-17 02:29N 35°27' E 139°39'0 0.0
2018-Oct-17 02:02N 35°27' E 139°39'0 0.0
2018-Oct-17 01:59N 35°27' E 139°39'0 0.0
2018-Oct-17 01:29N 35°27' E 139°39'0 0.0
2018-Oct-17 01:02N 35°27' E 139°39'0 0.0
2018-Oct-17 00:59N 35°27' E 139°39'0 0.0
2018-Oct-17 00:29N 35°27' E 139°39'0 0.0
2018-Oct-17 00:03N 35°27' E 139°39'0 0.0
2018-Oct-16 23:59N 35°27' E 139°39'0 0.0
2018-Oct-16 23:29N 35°27' E 139°39'0 0.0
2018-Oct-16 22:59N 35°27' E 139°39'0 0.0
2018-Oct-16 22:29N 35°27' E 139°39'0 0.0
2018-Oct-16 22:02N 35°27' E 139°39'480.8
2018-Oct-16 22:00N 35°24' E 139°36'46992.2 340 / 61005.6 19.516.222.5
2018-Oct-16 21:59N 35°27' E 139°39'0 0.0
2018-Oct-16 21:29N 35°27' E 139°39'0 0.0
2018-Oct-16 21:02N 35°27' E 139°39'0 0.0
2018-Oct-16 20:59N 35°27' E 139°39'0 0.0
2018-Oct-16 20:29N 35°27' E 139°39'0 0.0
2018-Oct-16 20:02N 35°27' E 139°39'481.8
2018-Oct-16 20:00N 35°24' E 139°36'41997.8 310 / 41004.310.8 17.0
2018-Oct-16 19:59N 35°27' E 139°39'0 0.0
2018-Oct-16 19:29N 35°27' E 139°39'0 0.0
2018-Oct-16 19:02N 35°27' E 139°39'0 0.0
2018-Oct-16 18:59N 35°27' E 139°39'0 0.0
2018-Oct-16 18:26N 35°27' E 139°39'0 0.0
2018-Oct-16 18:02N 35°27' E 139°39'0 0.0
2018-Oct-16 17:59N 35°27' E 139°39'0 0.0
2018-Oct-16 17:29N 35°27' E 139°39'0 0.0
2018-Oct-16 17:02N 35°27' E 139°39'0 0.0
2018-Oct-16 16:59N 35°27' E 139°39'0 0.0
2018-Oct-16 16:29N 35°27' E 139°39'0 0.0
2018-Oct-16 16:02N 35°27' E 139°39'0 0.0
2018-Oct-16 15:59N 35°27' E 139°39'0 0.0
2018-Oct-16 15:29N 35°27' E 139°39'0 0.0
2018-Oct-16 15:03N 35°27' E 139°39'0 0.0
2018-Oct-16 14:59N 35°27' E 139°39'0 0.0
2018-Oct-16 14:02N 35°27' E 139°39'0 0.0
2018-Oct-16 13:59N 35°27' E 139°39'0 0.0
2018-Oct-16 13:29N 35°27' E 139°39'0 0.0
2018-Oct-16 13:02N 35°27' E 139°39'0 0.0
2018-Oct-16 12:59N 35°27' E 139°39'0 0.0
2018-Oct-16 12:29N 35°27' E 139°39'0 0.0
2018-Oct-16 12:02N 35°27' E 139°39'0 0.0
2018-Oct-16 11:59N 35°27' E 139°39'0 0.0
2018-Oct-16 11:29N 35°27' E 139°39'0 0.0
2018-Oct-16 11:02N 35°27' E 139°39'0 0.0
2018-Oct-16 10:59N 35°27' E 139°39'0 0.0
2018-Oct-16 10:29N 35°27' E 139°39'0 0.0
2018-Oct-16 10:02N 35°27' E 139°39'0 0.0
2018-Oct-16 09:59N 35°27' E 139°39'0 0.0
2018-Oct-16 09:29N 35°27' E 139°39'0 0.0
2018-Oct-16 09:02N 35°27' E 139°39'0 0.0
2018-Oct-16 08:59N 35°27' E 139°39'0 0.0
2018-Oct-16 08:29N 35°27' E 139°39'0 0.0
2018-Oct-16 08:02N 35°27' E 139°39'0 0.0
2018-Oct-16 07:59N 35°27' E 139°39'0 0.0
2018-Oct-16 07:29N 35°27' E 139°39'0 0.0
2018-Oct-16 07:02N 35°27' E 139°39'0 0.0
2018-Oct-16 06:59N 35°27' E 139°39'0 0.0
2018-Oct-16 06:29N 35°27' E 139°39'0 0.0
2018-Oct-16 06:02N 35°27' E 139°39'0 0.0
2018-Oct-16 05:59N 35°27' E 139°39'0 0.0
2018-Oct-16 05:29N 35°27' E 139°39'0 0.0
2018-Oct-16 05:02N 35°27' E 139°39'0 0.0
2018-Oct-16 04:59N 35°27' E 139°39'0 0.0
2018-Oct-16 04:29N 35°27' E 139°39'0 0.0
2018-Oct-16 04:02N 35°27' E 139°39'0 0.0
2018-Oct-16 03:59N 35°27' E 139°39'0 0.0
2018-Oct-16 03:29N 35°27' E 139°39'0 0.0
2018-Oct-16 03:02N 35°27' E 139°39'0 0.0
2018-Oct-16 02:59N 35°27' E 139°39'0 0.0
2018-Oct-16 02:29N 35°27' E 139°39'0 0.0
2018-Oct-16 02:02N 35°27' E 139°39'0 0.0
2018-Oct-16 01:59N 35°27' E 139°39'0 0.0
2018-Oct-16 01:29N 35°27' E 139°39'0 0.0
2018-Oct-16 01:02N 35°27' E 139°39'0 0.0
2018-Oct-16 00:56N 35°27' E 139°39'0 0.0
2018-Oct-16 00:29N 35°27' E 139°39'0 0.0
2018-Oct-16 00:02N 35°27' E 139°39'0 0.0
2018-Oct-15 23:59N 35°27' E 139°39'0 0.0
2018-Oct-15 23:29N 35°27' E 139°39'1 1.9
2018-Oct-15 23:03N 35°27' E 139°40'0 5.1
2018-Oct-15 23:00N 35°27' E 139°40'3 6.4
2018-Oct-15 22:30N 35°26' E 139°44'4 7.8
2018-Oct-15 22:03N 35°23' E 139°46'112.3
2018-Oct-15 22:00N 35°23' E 139°46'611.0
2018-Oct-15 21:30N 35°17' E 139°45'511.2
2018-Oct-15 21:03N 35°12' E 139°47'112.1
2018-Oct-15 21:00N 35°12' E 139°47'5 9.1
2018-Oct-15 20:29N 35°07' E 139°46'716.0
2018-Oct-15 20:03N 35°01' E 139°42'117.9
2018-Oct-15 20:00N 35°00' E 139°41'5613.9
2018-Oct-15 16:00N 35°12' E 140°48'2814.1 010 / 111011.010.8 20.0 22.0
2018-Oct-15 14:00N 35°36' E 141°06'1918.6 160 / 81011.710.8 7.0 22.0
2018-Oct-15 13:00N 35°54' E 141°12'10715.3 330 / 81012.110.8 7.0 14.0
2018-Oct-15 06:00N 37°36' E 141°54'1312.9 280 / 61013.510.8 18.513.621.0
2018-Oct-15 05:00N 37°48' E 142°00'3316.6 280 / 61013.610.8 18.513.621.0
2018-Oct-15 03:00N 38°18' E 142°18'13815.4 310 / 61014.010.8 18.0 15.0
2018-Oct-14 18:00N 40°30' E 143°12'6215.4 100 / 81015.110.8 13.0 15.0
2018-Oct-14 14:00N 41°30' E 143°30'3517.5 320 / 171016.1 7.0 15.0
2018-Oct-14 12:00N 42°00' E 143°54'57 5.7 200 / 41017.110.8 7.0 15.0
2018-Oct-14 02:00N 42°54' E 144°18'94 7.8 1019.010.8 12.0 15.0
2018-Oct-13 14:00N 43°12' E 146°24'   200 / 121021.5 5.4 11.0 15.0
Track history (hours):
 
Tides and Currents Weather Stations Pressure Air Temp Water Temp Dewpoint Dewpoint Depression Visibility Wind Speed Wind Dir Waves Ship Positions

Amsterdam

Operator: Holland America Line

Last reported at 2018-Oct-23 07:00 UTC. Time now 2018-Oct-24 04:38 UTC.
Position N 38°00' E 122°00'.

Type: Ship. MMSI: 244370000.

Wind from 310 at 25 knots

Barometer 1013.4 mb
Air temperature 16.0 ° C
Visibility: greater than 5.4 NM
Dewpoint 5.6 ° C
Water temperature 19.0 ° C

Date/timePositionNaut miles runAvg speedWind from/ knotsBaromVisibWave heightAir tempDewpointWater temp
2018-Oct-23 07:00N 38°00' E 122°00'11713.0 310 / 251013.4 5.4 16.0 5.619.0
2018-Oct-22 22:00N 36°36' E 123°42'14114.1 260 / 301011.010.8 18.016.322.0
2018-Oct-22 12:00N 34°24' E 124°42'3913.0 100 / 81014.910.8 18.015.520.5
2018-Oct-22 09:00N 33°54' E 125°12'2612.8 040 / 111014.010.8 16.014.322.0
2018-Oct-22 07:00N 33°48' E 125°42'1515.0 010 / 51014.4 5.4 19.015.622.0
2018-Oct-22 06:00N 33°48' E 126°00'11514.4 010 / 51014.8 5.4 19.015.622.0
2018-Oct-21 22:00N 33°42' E 128°18'111 5.0 040 / 191015.010.8 19.017.424.0
2018-Oct-21 00:00N 34°00' E 130°30'15814.4 070 / 161019.010.8 21.0 23.5
2018-Oct-20 13:00N 32°30' E 133°06'63 5.8 010 / 211015.810.8 18.012.722.0
2018-Oct-20 02:00N 33°30' E 133°30'71 7.2 030 / 101015.710.8 18.1
2018-Oct-19 16:09N 33°49' E 134°52'513.8
2018-Oct-19 15:49N 33°53' E 134°53'513.8
2018-Oct-19 15:28N 33°58' E 134°54'614.4
2018-Oct-19 15:04N 34°04' E 134°56'114.1
2018-Oct-19 15:00N 34°04' E 134°57'714.0
2018-Oct-19 14:30N 34°11' E 134°58'4 7.1
2018-Oct-19 14:00N 34°12' E 134°54'1734.5 050 / 121013.910.8 19.013.822.0
2018-Oct-19 13:30N 34°26' E 135°04'818.3
2018-Oct-19 13:03N 34°33' E 135°10'117.5
2018-Oct-19 13:00N 34°34' E 135°11'713.4
2018-Oct-19 12:30N 34°39' E 135°16'3 7.1
2018-Oct-19 12:03N 34°41' E 135°13'0 5.1
2018-Oct-19 12:00N 34°41' E 135°12'0 0.3
2018-Oct-19 11:28N 34°41' E 135°12'0 0.0
2018-Oct-19 10:58N 34°41' E 135°12'0 0.0
2018-Oct-19 10:28N 34°41' E 135°12'0 0.0
2018-Oct-19 10:01N 34°41' E 135°12'0 0.0
2018-Oct-19 09:51N 34°41' E 135°12'0 0.0
2018-Oct-19 09:12N 34°41' E 135°12'0 0.0
2018-Oct-19 09:01N 34°41' E 135°12'0 0.0
2018-Oct-19 08:55N 34°41' E 135°12'0 0.0
2018-Oct-19 08:19N 34°41' E 135°12'0 0.0
2018-Oct-19 08:01N 34°41' E 135°12'0 0.0
2018-Oct-19 07:30N 34°41' E 135°12'0 0.0
2018-Oct-19 07:01N 34°41' E 135°12'0 0.0
2018-Oct-19 06:25N 34°41' E 135°12'0 0.0
2018-Oct-19 06:00N 34°41' E 135°12'0 0.0
2018-Oct-19 05:30N 34°41' E 135°12'0 0.0
2018-Oct-19 05:01N 34°41' E 135°12'0 0.0
2018-Oct-19 04:31N 34°41' E 135°12'0 0.0
2018-Oct-19 03:54N 34°41' E 135°12'0 0.0
2018-Oct-19 03:24N 34°41' E 135°12'0 0.0
2018-Oct-19 03:01N 34°41' E 135°12'0 0.0
2018-Oct-19 02:55N 34°41' E 135°12'0 0.0
2018-Oct-19 02:24N 34°41' E 135°12'0 0.0
2018-Oct-19 02:00N 34°41' E 135°12'5295.2
2018-Oct-19 02:00N 34°36' E 135°12'510.0 1012.710.8 19.6
2018-Oct-19 01:31N 34°41' E 135°12'0 0.0
2018-Oct-19 01:00N 34°41' E 135°12'0 0.0
2018-Oct-19 00:31N 34°41' E 135°12'0 0.0
2018-Oct-19 00:00N 34°41' E 135°12'0 0.1
2018-Oct-18 23:31N 34°41' E 135°12'3 6.1
2018-Oct-18 23:03N 34°40' E 135°15'0 9.5
2018-Oct-18 23:00N 34°39' E 135°16'4 9.0
2018-Oct-18 22:30N 34°35' E 135°15'512.2
2018-Oct-18 22:03N 34°30' E 135°12'113.2
2018-Oct-18 22:00N 34°30' E 135°11'815.1
2018-Oct-18 21:31N 34°24' E 135°05'817.5
2018-Oct-18 21:03N 34°18' E 134°60'117.3
2018-Oct-18 21:01N 34°17' E 134°59'815.8
2018-Oct-18 20:30N 34°09' E 134°60'818.8
2018-Oct-18 20:03N 34°01' E 134°60'118.7
2018-Oct-18 20:00N 33°60' E 134°59'918.6
2018-Oct-18 19:30N 33°50' E 134°59'913.0
2018-Oct-18 18:50N 33°43' E 135°04'3317.9
2018-Oct-18 17:00N 33°18' E 135°30'10617.7 040 / 121010.410.8 20.010.922.0
2018-Oct-18 11:00N 34°06' E 137°24'77 8.5 090 / 201010.410.8 20.014.922.0
2018-Oct-18 02:00N 35°00' E 138°30'49 3.5 040 / 111010.510.8 20.0
2018-Oct-17 12:00N 35°00' E 139°30'170.5 040 / 201009.410.8 17.0 22.0
2018-Oct-17 11:58N 35°01' E 139°31'714.0
2018-Oct-17 11:27N 35°04' E 139°39'614.3
2018-Oct-17 11:03N 35°08' E 139°44'115.3
2018-Oct-17 11:00N 35°09' E 139°45'612.6
2018-Oct-17 10:30N 35°15' E 139°46'613.0
2018-Oct-17 10:03N 35°20' E 139°43'113.0
2018-Oct-17 10:00N 35°20' E 139°42'612.4
2018-Oct-17 09:30N 35°27' E 139°42'2 5.4
2018-Oct-17 09:03N 35°27' E 139°39'0 2.6
2018-Oct-17 09:00N 35°27' E 139°39'0 0.4
2018-Oct-17 08:29N 35°27' E 139°39'0 0.0
2018-Oct-17 08:02N 35°27' E 139°39'0 0.0
2018-Oct-17 07:59N 35°27' E 139°39'0 0.0
2018-Oct-17 07:29N 35°27' E 139°39'0 0.0
2018-Oct-17 07:02N 35°27' E 139°39'0 0.0
2018-Oct-17 06:59N 35°27' E 139°39'0 0.0
2018-Oct-17 06:29N 35°27' E 139°39'0 0.0
2018-Oct-17 06:02N 35°27' E 139°39'0 0.1
2018-Oct-17 05:59N 35°27' E 139°39'0 0.0
2018-Oct-17 05:29N 35°27' E 139°39'0 0.0
2018-Oct-17 05:03N 35°27' E 139°39'0 0.1
2018-Oct-17 04:59N 35°27' E 139°39'0 0.0
2018-Oct-17 04:29N 35°27' E 139°39'0 0.0
2018-Oct-17 04:02N 35°27' E 139°39'0 0.0
2018-Oct-17 03:59N 35°27' E 139°39'0 0.0
2018-Oct-17 03:29N 35°27' E 139°39'0 0.0
2018-Oct-17 03:02N 35°27' E 139°39'0 0.0
2018-Oct-17 02:59N 35°27' E 139°39'0 0.0
2018-Oct-17 02:29N 35°27' E 139°39'0 0.0
2018-Oct-17 02:02N 35°27' E 139°39'0 0.0
2018-Oct-17 01:59N 35°27' E 139°39'0 0.0
2018-Oct-17 01:29N 35°27' E 139°39'0 0.0
2018-Oct-17 01:02N 35°27' E 139°39'0 0.0
2018-Oct-17 00:59N 35°27' E 139°39'0 0.0
2018-Oct-17 00:29N 35°27' E 139°39'0 0.0
2018-Oct-17 00:03N 35°27' E 139°39'0 0.0
2018-Oct-16 23:59N 35°27' E 139°39'0 0.0
2018-Oct-16 23:29N 35°27' E 139°39'0 0.0
2018-Oct-16 22:59N 35°27' E 139°39'0 0.0
2018-Oct-16 22:29N 35°27' E 139°39'0 0.0
2018-Oct-16 22:02N 35°27' E 139°39'480.8
2018-Oct-16 22:00N 35°24' E 139°36'46992.2 340 / 61005.6 19.516.222.5
2018-Oct-16 21:59N 35°27' E 139°39'0 0.0
2018-Oct-16 21:29N 35°27' E 139°39'0 0.0
2018-Oct-16 21:02N 35°27' E 139°39'0 0.0
2018-Oct-16 20:59N 35°27' E 139°39'0 0.0
2018-Oct-16 20:29N 35°27' E 139°39'0 0.0
2018-Oct-16 20:02N 35°27' E 139°39'481.8
2018-Oct-16 20:00N 35°24' E 139°36'41997.8 310 / 41004.310.8 17.0
2018-Oct-16 19:59N 35°27' E 139°39'0 0.0
2018-Oct-16 19:29N 35°27' E 139°39'0 0.0
2018-Oct-16 19:02N 35°27' E 139°39'0 0.0
2018-Oct-16 18:59N 35°27' E 139°39'0 0.0
2018-Oct-16 18:26N 35°27' E 139°39'0 0.0
2018-Oct-16 18:02N 35°27' E 139°39'0 0.0
2018-Oct-16 17:59N 35°27' E 139°39'0 0.0
2018-Oct-16 17:29N 35°27' E 139°39'0 0.0
2018-Oct-16 17:02N 35°27' E 139°39'0 0.0
2018-Oct-16 16:59N 35°27' E 139°39'0 0.0
2018-Oct-16 16:29N 35°27' E 139°39'0 0.0
2018-Oct-16 16:02N 35°27' E 139°39'0 0.0
2018-Oct-16 15:59N 35°27' E 139°39'0 0.0
2018-Oct-16 15:29N 35°27' E 139°39'0 0.0
2018-Oct-16 15:03N 35°27' E 139°39'0 0.0
2018-Oct-16 14:59N 35°27' E 139°39'0 0.0
2018-Oct-16 14:02N 35°27' E 139°39'0 0.0
2018-Oct-16 13:59N 35°27' E 139°39'0 0.0
2018-Oct-16 13:29N 35°27' E 139°39'0 0.0
2018-Oct-16 13:02N 35°27' E 139°39'0 0.0
2018-Oct-16 12:59N 35°27' E 139°39'0 0.0
2018-Oct-16 12:29N 35°27' E 139°39'0 0.0
2018-Oct-16 12:02N 35°27' E 139°39'0 0.0
2018-Oct-16 11:59N 35°27' E 139°39'0 0.0
2018-Oct-16 11:29N 35°27' E 139°39'0 0.0
2018-Oct-16 11:02N 35°27' E 139°39'0 0.0
2018-Oct-16 10:59N 35°27' E 139°39'0 0.0
2018-Oct-16 10:29N 35°27' E 139°39'0 0.0
2018-Oct-16 10:02N 35°27' E 139°39'0 0.0
2018-Oct-16 09:59N 35°27' E 139°39'0 0.0
2018-Oct-16 09:29N 35°27' E 139°39'0 0.0
2018-Oct-16 09:02N 35°27' E 139°39'0 0.0
2018-Oct-16 08:59N 35°27' E 139°39'0 0.0
2018-Oct-16 08:29N 35°27' E 139°39'0 0.0
2018-Oct-16 08:02N 35°27' E 139°39'0 0.0
2018-Oct-16 07:59N 35°27' E 139°39'0 0.0
2018-Oct-16 07:29N 35°27' E 139°39'0 0.0
2018-Oct-16 07:02N 35°27' E 139°39'0 0.0
2018-Oct-16 06:59N 35°27' E 139°39'0 0.0
2018-Oct-16 06:29N 35°27' E 139°39'0 0.0
2018-Oct-16 06:02N 35°27' E 139°39'0 0.0
2018-Oct-16 05:59N 35°27' E 139°39'0 0.0
2018-Oct-16 05:29N 35°27' E 139°39'0 0.0
2018-Oct-16 05:02N 35°27' E 139°39'0 0.0
2018-Oct-16 04:59N 35°27' E 139°39'0 0.0
2018-Oct-16 04:29N 35°27' E 139°39'0 0.0
2018-Oct-16 04:02N 35°27' E 139°39'0 0.0
2018-Oct-16 03:59N 35°27' E 139°39'0 0.0
2018-Oct-16 03:29N 35°27' E 139°39'0 0.0
2018-Oct-16 03:02N 35°27' E 139°39'0 0.0
2018-Oct-16 02:59N 35°27' E 139°39'0 0.0
2018-Oct-16 02:29N 35°27' E 139°39'0 0.0
2018-Oct-16 02:02N 35°27' E 139°39'0 0.0
2018-Oct-16 01:59N 35°27' E 139°39'0 0.0
2018-Oct-16 01:29N 35°27' E 139°39'0 0.0
2018-Oct-16 01:02N 35°27' E 139°39'0 0.0
2018-Oct-16 00:56N 35°27' E 139°39'0 0.0
2018-Oct-16 00:29N 35°27' E 139°39'0 0.0
2018-Oct-16 00:02N 35°27' E 139°39'0 0.0
2018-Oct-15 23:59N 35°27' E 139°39'0 0.0
2018-Oct-15 23:29N 35°27' E 139°39'1 1.9
2018-Oct-15 23:03N 35°27' E 139°40'0 5.1
2018-Oct-15 23:00N 35°27' E 139°40'3 6.4
2018-Oct-15 22:30N 35°26' E 139°44'4 7.8
2018-Oct-15 22:03N 35°23' E 139°46'112.3
2018-Oct-15 22:00N 35°23' E 139°46'611.0
2018-Oct-15 21:30N 35°17' E 139°45'511.2
2018-Oct-15 21:03N 35°12' E 139°47'112.1
2018-Oct-15 21:00N 35°12' E 139°47'5 9.1
2018-Oct-15 20:29N 35°07' E 139°46'716.0
2018-Oct-15 20:03N 35°01' E 139°42'117.9
2018-Oct-15 20:00N 35°00' E 139°41'5613.9
2018-Oct-15 16:00N 35°12' E 140°48'2814.1 010 / 111011.010.8 20.0 22.0
2018-Oct-15 14:00N 35°36' E 141°06'1918.6 160 / 81011.710.8 7.0 22.0
2018-Oct-15 13:00N 35°54' E 141°12'10715.3 330 / 81012.110.8 7.0 14.0
2018-Oct-15 06:00N 37°36' E 141°54'1312.9 280 / 61013.510.8 18.513.621.0
2018-Oct-15 05:00N 37°48' E 142°00'3316.6 280 / 61013.610.8 18.513.621.0
2018-Oct-15 03:00N 38°18' E 142°18'13815.4 310 / 61014.010.8 18.0 15.0
2018-Oct-14 18:00N 40°30' E 143°12'6215.4 100 / 81015.110.8 13.0 15.0
2018-Oct-14 14:00N 41°30' E 143°30'3517.5 320 / 171016.1 7.0 15.0
2018-Oct-14 12:00N 42°00' E 143°54'57 5.7 200 / 41017.110.8 7.0 15.0
2018-Oct-14 02:00N 42°54' E 144°18'94 7.8 1019.010.8 12.0 15.0
2018-Oct-13 14:00N 43°12' E 146°24'   200 / 121021.5 5.4 11.0 15.0

Dump ship's entire track history